sensor_id;sensor_type;location;lat;lon;timestamp;P1;durP1;ratioP1;P2;durP2;ratioP2
17235;SDS011;8734;59.272;17.780;2023-02-01T00:01:25;7.37;;;3.00;;
17235;SDS011;8734;59.272;17.780;2023-02-01T00:03:54;7.80;;;2.67;;
17235;SDS011;8734;59.272;17.780;2023-02-01T00:06:23;10.43;;;2.63;;
17235;SDS011;8734;59.272;17.780;2023-02-01T00:08:52;13.10;;;2.30;;
17235;SDS011;8734;59.272;17.780;2023-02-01T00:11:21;6.77;;;2.67;;
17235;SDS011;8734;59.272;17.780;2023-02-01T00:13:50;23.37;;;2.60;;
17235;SDS011;8734;59.272;17.780;2023-02-01T00:16:21;9.07;;;3.33;;
17235;SDS011;8734;59.272;17.780;2023-02-01T00:18:51;6.10;;;2.60;;
17235;SDS011;8734;59.272;17.780;2023-02-01T00:21:24;9.77;;;3.30;;
17235;SDS011;8734;59.272;17.780;2023-02-01T00:23:52;13.00;;;3.10;;
17235;SDS011;8734;59.272;17.780;2023-02-01T00:26:22;7.83;;;2.60;;
17235;SDS011;8734;59.272;17.780;2023-02-01T00:28:57;4.90;;;2.20;;
17235;SDS011;8734;59.272;17.780;2023-02-01T00:31:27;8.17;;;2.67;;
17235;SDS011;8734;59.272;17.780;2023-02-01T00:33:55;12.00;;;2.90;;
17235;SDS011;8734;59.272;17.780;2023-02-01T00:36:24;6.87;;;2.47;;
17235;SDS011;8734;59.272;17.780;2023-02-01T00:38:52;7.67;;;2.80;;
17235;SDS011;8734;59.272;17.780;2023-02-01T00:41:21;6.57;;;2.80;;
17235;SDS011;8734;59.272;17.780;2023-02-01T00:43:50;12.80;;;3.10;;
17235;SDS011;8734;59.272;17.780;2023-02-01T00:46:18;8.13;;;2.70;;
17235;SDS011;8734;59.272;17.780;2023-02-01T00:48:49;10.13;;;2.77;;
17235;SDS011;8734;59.272;17.780;2023-02-01T00:51:19;6.53;;;2.77;;
17235;SDS011;8734;59.272;17.780;2023-02-01T00:53:49;13.43;;;2.93;;
17235;SDS011;8734;59.272;17.780;2023-02-01T00:56:18;5.10;;;2.67;;
17235;SDS011;8734;59.272;17.780;2023-02-01T00:58:47;10.40;;;2.50;;
17235;SDS011;8734;59.272;17.780;2023-02-01T01:01:16;10.00;;;2.43;;
17235;SDS011;8734;59.272;17.780;2023-02-01T01:03:46;10.47;;;2.37;;
17235;SDS011;8734;59.272;17.780;2023-02-01T01:06:19;5.30;;;3.27;;
17235;SDS011;8734;59.272;17.780;2023-02-01T01:08:50;7.60;;;2.30;;
17235;SDS011;8734;59.272;17.780;2023-02-01T01:11:21;6.87;;;2.83;;
17235;SDS011;8734;59.272;17.780;2023-02-01T01:13:50;12.90;;;3.47;;
17235;SDS011;8734;59.272;17.780;2023-02-01T01:16:20;9.73;;;2.40;;
17235;SDS011;8734;59.272;17.780;2023-02-01T01:18:51;14.00;;;2.73;;
17235;SDS011;8734;59.272;17.780;2023-02-01T01:21:21;6.40;;;2.43;;
17235;SDS011;8734;59.272;17.780;2023-02-01T01:23:49;5.27;;;2.80;;
17235;SDS011;8734;59.272;17.780;2023-02-01T01:26:18;12.67;;;3.03;;
17235;SDS011;8734;59.272;17.780;2023-02-01T01:28:49;8.07;;;3.20;;
17235;SDS011;8734;59.272;17.780;2023-02-01T01:31:18;11.30;;;2.67;;
17235;SDS011;8734;59.272;17.780;2023-02-01T01:33:48;17.87;;;2.57;;
17235;SDS011;8734;59.272;17.780;2023-02-01T01:36:18;11.50;;;2.90;;
17235;SDS011;8734;59.272;17.780;2023-02-01T01:38:48;4.53;;;2.30;;
17235;SDS011;8734;59.272;17.780;2023-02-01T01:41:17;7.13;;;2.53;;
17235;SDS011;8734;59.272;17.780;2023-02-01T01:43:52;3.87;;;2.20;;
17235;SDS011;8734;59.272;17.780;2023-02-01T01:46:22;10.50;;;2.57;;
17235;SDS011;8734;59.272;17.780;2023-02-01T01:48:54;10.03;;;2.40;;
17235;SDS011;8734;59.272;17.780;2023-02-01T01:51:27;9.80;;;2.40;;
17235;SDS011;8734;59.272;17.780;2023-02-01T01:53:59;7.40;;;2.40;;
17235;SDS011;8734;59.272;17.780;2023-02-01T01:56:31;6.40;;;2.53;;
17235;SDS011;8734;59.272;17.780;2023-02-01T01:59:02;6.13;;;2.00;;
17235;SDS011;8734;59.272;17.780;2023-02-01T02:01:32;6.27;;;2.17;;
17235;SDS011;8734;59.272;17.780;2023-02-01T02:04:00;6.73;;;1.70;;
17235;SDS011;8734;59.272;17.780;2023-02-01T02:06:36;7.90;;;2.20;;
17235;SDS011;8734;59.272;17.780;2023-02-01T02:09:08;8.30;;;2.10;;
17235;SDS011;8734;59.272;17.780;2023-02-01T02:11:36;12.50;;;2.87;;
17235;SDS011;8734;59.272;17.780;2023-02-01T02:14:05;8.27;;;2.50;;
17235;SDS011;8734;59.272;17.780;2023-02-01T02:22:59;7.83;;;2.30;;
17235;SDS011;8734;59.272;17.780;2023-02-01T02:25:48;11.57;;;2.43;;
17235;SDS011;8734;59.272;17.780;2023-02-01T02:31:47;12.70;;;2.27;;
17235;SDS011;8734;59.272;17.780;2023-02-01T02:34:28;5.97;;;2.30;;
17235;SDS011;8734;59.272;17.780;2023-02-01T02:37:04;7.27;;;2.67;;
17235;SDS011;8734;59.272;17.780;2023-02-01T02:39:42;6.57;;;2.23;;
17235;SDS011;8734;59.272;17.780;2023-02-01T02:42:18;8.10;;;2.77;;
17235;SDS011;8734;59.272;17.780;2023-02-01T02:45:13;9.30;;;2.97;;
17235;SDS011;8734;59.272;17.780;2023-02-01T02:48:08;5.73;;;2.47;;
17235;SDS011;8734;59.272;17.780;2023-02-01T02:50:42;5.50;;;2.47;;
17235;SDS011;8734;59.272;17.780;2023-02-01T02:53:32;11.23;;;2.80;;
17235;SDS011;8734;59.272;17.780;2023-02-01T02:56:22;5.07;;;2.67;;
17235;SDS011;8734;59.272;17.780;2023-02-01T02:59:11;11.80;;;3.20;;
17235;SDS011;8734;59.272;17.780;2023-02-01T03:02:00;5.33;;;2.50;;
17235;SDS011;8734;59.272;17.780;2023-02-01T03:04:46;3.43;;;2.13;;
17235;SDS011;8734;59.272;17.780;2023-02-01T03:10:24;5.07;;;2.10;;
17235;SDS011;8734;59.272;17.780;2023-02-01T03:12:59;5.77;;;2.53;;
17235;SDS011;8734;59.272;17.780;2023-02-01T03:15:32;8.33;;;3.20;;
17235;SDS011;8734;59.272;17.780;2023-02-01T03:18:07;13.40;;;2.93;;
17235;SDS011;8734;59.272;17.780;2023-02-01T03:20:40;6.80;;;2.93;;
17235;SDS011;8734;59.272;17.780;2023-02-01T03:23:13;8.00;;;3.10;;
17235;SDS011;8734;59.272;17.780;2023-02-01T03:25:46;8.50;;;2.90;;
17235;SDS011;8734;59.272;17.780;2023-02-01T03:28:17;6.20;;;2.73;;
17235;SDS011;8734;59.272;17.780;2023-02-01T03:30:50;15.37;;;2.77;;
17235;SDS011;8734;59.272;17.780;2023-02-01T03:33:20;16.10;;;3.20;;
17235;SDS011;8734;59.272;17.780;2023-02-01T03:35:54;11.33;;;3.27;;
17235;SDS011;8734;59.272;17.780;2023-02-01T03:38:43;5.03;;;2.60;;
17235;SDS011;8734;59.272;17.780;2023-02-01T03:41:18;8.47;;;2.97;;
17235;SDS011;8734;59.272;17.780;2023-02-01T03:43:53;12.47;;;2.83;;
17235;SDS011;8734;59.272;17.780;2023-02-01T03:46:26;9.77;;;2.60;;
17235;SDS011;8734;59.272;17.780;2023-02-01T03:49:00;9.63;;;3.03;;
17235;SDS011;8734;59.272;17.780;2023-02-01T03:51:33;15.07;;;3.80;;
17235;SDS011;8734;59.272;17.780;2023-02-01T03:54:04;7.17;;;2.87;;
17235;SDS011;8734;59.272;17.780;2023-02-01T03:56:36;9.33;;;2.60;;
17235;SDS011;8734;59.272;17.780;2023-02-01T03:59:08;6.17;;;2.80;;
17235;SDS011;8734;59.272;17.780;2023-02-01T04:01:36;13.70;;;2.60;;
17235;SDS011;8734;59.272;17.780;2023-02-01T04:04:04;11.47;;;2.97;;
17235;SDS011;8734;59.272;17.780;2023-02-01T04:06:33;18.27;;;2.90;;
17235;SDS011;8734;59.272;17.780;2023-02-01T04:09:01;5.80;;;2.87;;
17235;SDS011;8734;59.272;17.780;2023-02-01T04:11:31;11.40;;;2.90;;
17235;SDS011;8734;59.272;17.780;2023-02-01T04:14:00;10.37;;;2.83;;
17235;SDS011;8734;59.272;17.780;2023-02-01T04:16:30;15.93;;;3.07;;
17235;SDS011;8734;59.272;17.780;2023-02-01T04:18:59;11.37;;;2.80;;
17235;SDS011;8734;59.272;17.780;2023-02-01T04:21:28;11.97;;;2.80;;
17235;SDS011;8734;59.272;17.780;2023-02-01T04:23:57;6.97;;;2.27;;
17235;SDS011;8734;59.272;17.780;2023-02-01T04:26:25;8.63;;;3.00;;
17235;SDS011;8734;59.272;17.780;2023-02-01T04:28:55;13.87;;;2.70;;
17235;SDS011;8734;59.272;17.780;2023-02-01T04:31:23;10.93;;;2.77;;
17235;SDS011;8734;59.272;17.780;2023-02-01T04:33:53;16.23;;;3.10;;
17235;SDS011;8734;59.272;17.780;2023-02-01T04:36:24;11.60;;;2.57;;
17235;SDS011;8734;59.272;17.780;2023-02-01T04:38:52;22.00;;;3.10;;
17235;SDS011;8734;59.272;17.780;2023-02-01T04:41:20;13.37;;;3.07;;
17235;SDS011;8734;59.272;17.780;2023-02-01T04:43:50;8.37;;;2.90;;
17235;SDS011;8734;59.272;17.780;2023-02-01T04:46:20;23.60;;;3.03;;
17235;SDS011;8734;59.272;17.780;2023-02-01T04:48:48;11.30;;;2.90;;
17235;SDS011;8734;59.272;17.780;2023-02-01T04:51:17;8.73;;;3.13;;
17235;SDS011;8734;59.272;17.780;2023-02-01T04:53:45;7.83;;;2.80;;
17235;SDS011;8734;59.272;17.780;2023-02-01T04:56:13;11.90;;;2.83;;
17235;SDS011;8734;59.272;17.780;2023-02-01T04:58:42;12.60;;;2.60;;
17235;SDS011;8734;59.272;17.780;2023-02-01T05:01:10;9.83;;;2.60;;
17235;SDS011;8734;59.272;17.780;2023-02-01T05:03:40;17.73;;;3.00;;
17235;SDS011;8734;59.272;17.780;2023-02-01T05:06:08;10.37;;;2.83;;
17235;SDS011;8734;59.272;17.780;2023-02-01T05:08:36;15.03;;;2.90;;
17235;SDS011;8734;59.272;17.780;2023-02-01T05:11:04;7.67;;;2.87;;
17235;SDS011;8734;59.272;17.780;2023-02-01T05:13:33;6.97;;;2.83;;
17235;SDS011;8734;59.272;17.780;2023-02-01T05:16:15;10.53;;;2.77;;
17235;SDS011;8734;59.272;17.780;2023-02-01T05:18:46;6.73;;;2.37;;
17235;SDS011;8734;59.272;17.780;2023-02-01T05:21:14;7.80;;;2.87;;
17235;SDS011;8734;59.272;17.780;2023-02-01T05:23:42;13.33;;;2.90;;
17235;SDS011;8734;59.272;17.780;2023-02-01T05:26:29;15.07;;;2.03;;
17235;SDS011;8734;59.272;17.780;2023-02-01T05:28:57;7.73;;;2.53;;
17235;SDS011;8734;59.272;17.780;2023-02-01T05:31:25;15.07;;;3.67;;
17235;SDS011;8734;59.272;17.780;2023-02-01T05:33:55;10.47;;;2.90;;
17235;SDS011;8734;59.272;17.780;2023-02-01T05:36:24;7.83;;;2.77;;
17235;SDS011;8734;59.272;17.780;2023-02-01T05:38:52;4.77;;;2.30;;
17235;SDS011;8734;59.272;17.780;2023-02-01T05:41:21;16.57;;;2.40;;
17235;SDS011;8734;59.272;17.780;2023-02-01T05:43:49;11.97;;;2.37;;
17235;SDS011;8734;59.272;17.780;2023-02-01T05:46:17;11.27;;;2.47;;
17235;SDS011;8734;59.272;17.780;2023-02-01T05:48:46;4.93;;;1.93;;
17235;SDS011;8734;59.272;17.780;2023-02-01T05:51:16;5.60;;;2.23;;
17235;SDS011;8734;59.272;17.780;2023-02-01T05:53:44;9.83;;;2.43;;
17235;SDS011;8734;59.272;17.780;2023-02-01T05:56:13;18.40;;;2.50;;
17235;SDS011;8734;59.272;17.780;2023-02-01T05:58:41;11.13;;;3.07;;
17235;SDS011;8734;59.272;17.780;2023-02-01T06:01:09;9.73;;;2.73;;
17235;SDS011;8734;59.272;17.780;2023-02-01T06:03:37;11.80;;;3.33;;
17235;SDS011;8734;59.272;17.780;2023-02-01T06:06:06;17.03;;;2.87;;
17235;SDS011;8734;59.272;17.780;2023-02-01T06:08:36;8.40;;;2.60;;
17235;SDS011;8734;59.272;17.780;2023-02-01T06:11:07;5.90;;;2.47;;
17235;SDS011;8734;59.272;17.780;2023-02-01T06:13:38;8.27;;;2.83;;
17235;SDS011;8734;59.272;17.780;2023-02-01T06:16:06;6.93;;;3.00;;
17235;SDS011;8734;59.272;17.780;2023-02-01T06:18:35;6.93;;;2.93;;
17235;SDS011;8734;59.272;17.780;2023-02-01T06:21:04;9.70;;;3.27;;
17235;SDS011;8734;59.272;17.780;2023-02-01T06:23:32;17.27;;;3.23;;
17235;SDS011;8734;59.272;17.780;2023-02-01T06:26:03;12.43;;;2.97;;
17235;SDS011;8734;59.272;17.780;2023-02-01T06:28:33;8.43;;;3.27;;
17235;SDS011;8734;59.272;17.780;2023-02-01T06:31:03;7.23;;;2.80;;
17235;SDS011;8734;59.272;17.780;2023-02-01T06:33:33;11.63;;;2.73;;
17235;SDS011;8734;59.272;17.780;2023-02-01T06:36:02;10.93;;;3.27;;
17235;SDS011;8734;59.272;17.780;2023-02-01T06:38:32;21.23;;;3.63;;
17235;SDS011;8734;59.272;17.780;2023-02-01T06:41:01;10.93;;;3.87;;
17235;SDS011;8734;59.272;17.780;2023-02-01T06:43:31;7.97;;;3.10;;
17235;SDS011;8734;59.272;17.780;2023-02-01T06:46:00;9.00;;;2.83;;
17235;SDS011;8734;59.272;17.780;2023-02-01T06:48:30;6.20;;;2.97;;
17235;SDS011;8734;59.272;17.780;2023-02-01T06:50:59;10.80;;;2.67;;
17235;SDS011;8734;59.272;17.780;2023-02-01T06:53:28;7.17;;;2.80;;
17235;SDS011;8734;59.272;17.780;2023-02-01T06:55:57;11.10;;;3.30;;
17235;SDS011;8734;59.272;17.780;2023-02-01T06:58:29;9.37;;;3.23;;
17235;SDS011;8734;59.272;17.780;2023-02-01T07:01:00;6.73;;;2.40;;
17235;SDS011;8734;59.272;17.780;2023-02-01T07:03:32;7.53;;;2.83;;
17235;SDS011;8734;59.272;17.780;2023-02-01T07:06:01;11.63;;;3.33;;
17235;SDS011;8734;59.272;17.780;2023-02-01T07:08:30;16.10;;;3.63;;
17235;SDS011;8734;59.272;17.780;2023-02-01T07:11:01;11.00;;;3.70;;
17235;SDS011;8734;59.272;17.780;2023-02-01T07:13:31;16.37;;;3.67;;
17235;SDS011;8734;59.272;17.780;2023-02-01T07:16:00;14.57;;;3.57;;
17235;SDS011;8734;59.272;17.780;2023-02-01T07:18:29;14.30;;;3.70;;
17235;SDS011;8734;59.272;17.780;2023-02-01T07:20:59;11.47;;;3.60;;
17235;SDS011;8734;59.272;17.780;2023-02-01T07:23:27;9.83;;;3.60;;
17235;SDS011;8734;59.272;17.780;2023-02-01T07:25:56;12.30;;;3.50;;
17235;SDS011;8734;59.272;17.780;2023-02-01T07:28:25;10.97;;;3.90;;
17235;SDS011;8734;59.272;17.780;2023-02-01T07:31:02;16.57;;;4.60;;
17235;SDS011;8734;59.272;17.780;2023-02-01T07:33:31;13.47;;;4.27;;
17235;SDS011;8734;59.272;17.780;2023-02-01T07:36:01;13.43;;;4.10;;
17235;SDS011;8734;59.272;17.780;2023-02-01T07:38:30;13.87;;;4.37;;
17235;SDS011;8734;59.272;17.780;2023-02-01T07:40:59;17.77;;;5.30;;
17235;SDS011;8734;59.272;17.780;2023-02-01T07:43:28;17.90;;;4.53;;
17235;SDS011;8734;59.272;17.780;2023-02-01T07:45:57;19.33;;;5.20;;
17235;SDS011;8734;59.272;17.780;2023-02-01T07:48:27;13.33;;;5.87;;
17235;SDS011;8734;59.272;17.780;2023-02-01T07:50:58;13.93;;;5.33;;
17235;SDS011;8734;59.272;17.780;2023-02-01T07:53:28;15.57;;;5.67;;
17235;SDS011;8734;59.272;17.780;2023-02-01T07:55:57;18.63;;;5.50;;
17235;SDS011;8734;59.272;17.780;2023-02-01T07:58:26;13.90;;;4.77;;
17235;SDS011;8734;59.272;17.780;2023-02-01T08:00:54;16.23;;;4.00;;
17235;SDS011;8734;59.272;17.780;2023-02-01T08:03:43;11.43;;;4.47;;
17235;SDS011;8734;59.272;17.780;2023-02-01T08:06:11;13.73;;;4.20;;
17235;SDS011;8734;59.272;17.780;2023-02-01T08:08:39;15.70;;;4.20;;
17235;SDS011;8734;59.272;17.780;2023-02-01T08:11:09;10.53;;;4.30;;
17235;SDS011;8734;59.272;17.780;2023-02-01T08:13:37;10.33;;;4.90;;
17235;SDS011;8734;59.272;17.780;2023-02-01T08:16:06;9.60;;;4.23;;
17235;SDS011;8734;59.272;17.780;2023-02-01T08:18:36;13.87;;;4.73;;
17235;SDS011;8734;59.272;17.780;2023-02-01T08:21:07;20.73;;;5.00;;
17235;SDS011;8734;59.272;17.780;2023-02-01T08:23:38;19.43;;;4.00;;
17235;SDS011;8734;59.272;17.780;2023-02-01T08:26:08;14.57;;;4.93;;
17235;SDS011;8734;59.272;17.780;2023-02-01T08:28:37;12.93;;;5.00;;
17235;SDS011;8734;59.272;17.780;2023-02-01T08:31:07;22.63;;;6.93;;
17235;SDS011;8734;59.272;17.780;2023-02-01T08:33:36;36.53;;;9.47;;
17235;SDS011;8734;59.272;17.780;2023-02-01T08:36:07;19.00;;;5.60;;
17235;SDS011;8734;59.272;17.780;2023-02-01T08:38:37;14.73;;;5.20;;
17235;SDS011;8734;59.272;17.780;2023-02-01T08:41:08;20.87;;;5.70;;
17235;SDS011;8734;59.272;17.780;2023-02-01T08:43:37;16.63;;;5.50;;
17235;SDS011;8734;59.272;17.780;2023-02-01T08:46:07;15.63;;;4.40;;
17235;SDS011;8734;59.272;17.780;2023-02-01T08:48:36;7.03;;;3.77;;
17235;SDS011;8734;59.272;17.780;2023-02-01T08:51:06;12.00;;;4.47;;
17235;SDS011;8734;59.272;17.780;2023-02-01T08:53:36;32.33;;;4.87;;
17235;SDS011;8734;59.272;17.780;2023-02-01T08:56:07;12.77;;;4.73;;
17235;SDS011;8734;59.272;17.780;2023-02-01T08:58:36;10.53;;;3.97;;
17235;SDS011;8734;59.272;17.780;2023-02-01T09:01:05;10.67;;;3.83;;
17235;SDS011;8734;59.272;17.780;2023-02-01T09:03:35;9.40;;;3.70;;
17235;SDS011;8734;59.272;17.780;2023-02-01T09:06:05;20.90;;;3.80;;
17235;SDS011;8734;59.272;17.780;2023-02-01T09:08:36;18.50;;;4.60;;
17235;SDS011;8734;59.272;17.780;2023-02-01T09:11:06;26.90;;;6.07;;
17235;SDS011;8734;59.272;17.780;2023-02-01T09:13:38;21.43;;;4.63;;
17235;SDS011;8734;59.272;17.780;2023-02-01T09:16:06;14.60;;;3.77;;
17235;SDS011;8734;59.272;17.780;2023-02-01T09:18:35;17.97;;;3.70;;
17235;SDS011;8734;59.272;17.780;2023-02-01T09:21:22;8.80;;;3.60;;
17235;SDS011;8734;59.272;17.780;2023-02-01T09:23:51;20.87;;;3.60;;
17235;SDS011;8734;59.272;17.780;2023-02-01T09:26:19;13.23;;;3.87;;
17235;SDS011;8734;59.272;17.780;2023-02-01T09:28:57;12.83;;;3.03;;
17235;SDS011;8734;59.272;17.780;2023-02-01T09:31:26;10.00;;;3.43;;
17235;SDS011;8734;59.272;17.780;2023-02-01T09:33:54;13.23;;;3.30;;
17235;SDS011;8734;59.272;17.780;2023-02-01T09:36:24;13.40;;;3.13;;
17235;SDS011;8734;59.272;17.780;2023-02-01T09:38:56;13.47;;;3.33;;
17235;SDS011;8734;59.272;17.780;2023-02-01T09:41:36;9.43;;;3.10;;
17235;SDS011;8734;59.272;17.780;2023-02-01T09:44:21;14.70;;;3.13;;
17235;SDS011;8734;59.272;17.780;2023-02-01T09:47:10;6.53;;;3.30;;
17235;SDS011;8734;59.272;17.780;2023-02-01T09:49:43;17.33;;;4.00;;
17235;SDS011;8734;59.272;17.780;2023-02-01T09:52:22;15.10;;;3.43;;
17235;SDS011;8734;59.272;17.780;2023-02-01T09:54:57;13.27;;;3.67;;
17235;SDS011;8734;59.272;17.780;2023-02-01T09:57:32;10.47;;;3.17;;
17235;SDS011;8734;59.272;17.780;2023-02-01T10:00:12;14.00;;;3.43;;
17235;SDS011;8734;59.272;17.780;2023-02-01T10:02:45;9.00;;;3.57;;
17235;SDS011;8734;59.272;17.780;2023-02-01T10:05:15;11.97;;;3.60;;
17235;SDS011;8734;59.272;17.780;2023-02-01T10:07:54;8.97;;;3.23;;
17235;SDS011;8734;59.272;17.780;2023-02-01T10:10:30;14.63;;;3.80;;
17235;SDS011;8734;59.272;17.780;2023-02-01T10:13:07;8.57;;;3.40;;
17235;SDS011;8734;59.272;17.780;2023-02-01T10:15:50;11.03;;;2.90;;
17235;SDS011;8734;59.272;17.780;2023-02-01T10:18:35;17.30;;;2.93;;
17235;SDS011;8734;59.272;17.780;2023-02-01T10:21:19;13.37;;;3.20;;
17235;SDS011;8734;59.272;17.780;2023-02-01T10:26:53;7.17;;;2.63;;
17235;SDS011;8734;59.272;17.780;2023-02-01T10:29:29;13.40;;;2.50;;
17235;SDS011;8734;59.272;17.780;2023-02-01T10:32:04;15.03;;;3.13;;
17235;SDS011;8734;59.272;17.780;2023-02-01T10:34:40;8.37;;;2.63;;
17235;SDS011;8734;59.272;17.780;2023-02-01T10:37:13;5.57;;;2.50;;
17235;SDS011;8734;59.272;17.780;2023-02-01T10:39:49;8.90;;;3.03;;
17235;SDS011;8734;59.272;17.780;2023-02-01T10:42:21;5.97;;;2.60;;
17235;SDS011;8734;59.272;17.780;2023-02-01T10:44:52;11.07;;;2.53;;
17235;SDS011;8734;59.272;17.780;2023-02-01T10:47:24;14.53;;;2.60;;
17235;SDS011;8734;59.272;17.780;2023-02-01T10:49:54;26.53;;;14.70;;
17235;SDS011;8734;59.272;17.780;2023-02-01T10:52:31;39.10;;;15.20;;
17235;SDS011;8734;59.272;17.780;2023-02-01T10:57:56;10.70;;;3.53;;
17235;SDS011;8734;59.272;17.780;2023-02-01T11:00:25;9.27;;;3.00;;
17235;SDS011;8734;59.272;17.780;2023-02-01T11:02:54;14.00;;;3.20;;
17235;SDS011;8734;59.272;17.780;2023-02-01T11:05:23;8.80;;;3.60;;
17235;SDS011;8734;59.272;17.780;2023-02-01T11:07:53;9.13;;;3.00;;
17235;SDS011;8734;59.272;17.780;2023-02-01T11:10:37;16.10;;;4.33;;
17235;SDS011;8734;59.272;17.780;2023-02-01T11:13:11;11.67;;;3.10;;
17235;SDS011;8734;59.272;17.780;2023-02-01T11:15:44;14.43;;;3.47;;
17235;SDS011;8734;59.272;17.780;2023-02-01T11:18:16;25.60;;;3.70;;
17235;SDS011;8734;59.272;17.780;2023-02-01T11:20:46;12.53;;;3.40;;
17235;SDS011;8734;59.272;17.780;2023-02-01T11:23:18;11.13;;;3.73;;
17235;SDS011;8734;59.272;17.780;2023-02-01T11:25:51;12.10;;;3.43;;
17235;SDS011;8734;59.272;17.780;2023-02-01T11:28:21;6.47;;;2.67;;
17235;SDS011;8734;59.272;17.780;2023-02-01T11:30:53;16.90;;;3.87;;
17235;SDS011;8734;59.272;17.780;2023-02-01T11:33:24;10.83;;;3.40;;
17235;SDS011;8734;59.272;17.780;2023-02-01T11:35:56;16.90;;;3.67;;
17235;SDS011;8734;59.272;17.780;2023-02-01T11:38:27;12.70;;;3.40;;
17235;SDS011;8734;59.272;17.780;2023-02-01T11:41:10;14.97;;;3.17;;
17235;SDS011;8734;59.272;17.780;2023-02-01T11:43:50;8.27;;;3.80;;
17235;SDS011;8734;59.272;17.780;2023-02-01T11:46:21;22.77;;;4.60;;
17235;SDS011;8734;59.272;17.780;2023-02-01T11:48:53;13.83;;;3.93;;
17235;SDS011;8734;59.272;17.780;2023-02-01T11:51:27;18.93;;;4.73;;
17235;SDS011;8734;59.272;17.780;2023-02-01T11:54:26;10.70;;;4.27;;
17235;SDS011;8734;59.272;17.780;2023-02-01T11:57:10;17.70;;;5.40;;
17235;SDS011;8734;59.272;17.780;2023-02-01T11:59:54;11.70;;;4.43;;
17235;SDS011;8734;59.272;17.780;2023-02-01T12:02:40;26.37;;;5.93;;
17235;SDS011;8734;59.272;17.780;2023-02-01T12:05:27;16.67;;;5.63;;
17235;SDS011;8734;59.272;17.780;2023-02-01T12:08:11;14.63;;;5.77;;
17235;SDS011;8734;59.272;17.780;2023-02-01T12:10:57;14.70;;;4.97;;
17235;SDS011;8734;59.272;17.780;2023-02-01T12:13:41;12.33;;;5.63;;
17235;SDS011;8734;59.272;17.780;2023-02-01T12:16:22;15.93;;;5.47;;
17235;SDS011;8734;59.272;17.780;2023-02-01T12:19:04;19.30;;;6.30;;
17235;SDS011;8734;59.272;17.780;2023-02-01T12:21:56;23.27;;;6.17;;
17235;SDS011;8734;59.272;17.780;2023-02-01T12:24:47;16.93;;;5.30;;
17235;SDS011;8734;59.272;17.780;2023-02-01T12:27:42;15.73;;;5.87;;
17235;SDS011;8734;59.272;17.780;2023-02-01T12:30:32;11.33;;;5.53;;
17235;SDS011;8734;59.272;17.780;2023-02-01T12:33:29;17.13;;;5.93;;
17235;SDS011;8734;59.272;17.780;2023-02-01T12:36:09;13.90;;;5.83;;
17235;SDS011;8734;59.272;17.780;2023-02-01T12:38:48;22.20;;;6.10;;
17235;SDS011;8734;59.272;17.780;2023-02-01T12:44:24;13.13;;;5.23;;
17235;SDS011;8734;59.272;17.780;2023-02-01T12:46:58;12.77;;;5.47;;
17235;SDS011;8734;59.272;17.780;2023-02-01T12:49:33;9.97;;;5.33;;
17235;SDS011;8734;59.272;17.780;2023-02-01T12:52:10;11.77;;;4.53;;
17235;SDS011;8734;59.272;17.780;2023-02-01T12:54:46;12.50;;;4.30;;
17235;SDS011;8734;59.272;17.780;2023-02-01T12:57:18;13.20;;;5.73;;
17235;SDS011;8734;59.272;17.780;2023-02-01T12:59:54;18.10;;;4.73;;
17235;SDS011;8734;59.272;17.780;2023-02-01T13:02:32;8.40;;;3.87;;
17235;SDS011;8734;59.272;17.780;2023-02-01T13:05:12;8.50;;;4.13;;
17235;SDS011;8734;59.272;17.780;2023-02-01T13:07:45;11.87;;;5.07;;
17235;SDS011;8734;59.272;17.780;2023-02-01T13:10:21;13.40;;;4.60;;
17235;SDS011;8734;59.272;17.780;2023-02-01T13:12:57;11.83;;;4.80;;
17235;SDS011;8734;59.272;17.780;2023-02-01T13:15:32;22.93;;;5.20;;
17235;SDS011;8734;59.272;17.780;2023-02-01T13:18:09;10.33;;;4.80;;
17235;SDS011;8734;59.272;17.780;2023-02-01T13:20:47;13.47;;;6.20;;
17235;SDS011;8734;59.272;17.780;2023-02-01T13:23:22;14.60;;;5.80;;
17235;SDS011;8734;59.272;17.780;2023-02-01T13:25:55;15.80;;;5.33;;
17235;SDS011;8734;59.272;17.780;2023-02-01T13:28:25;23.00;;;6.30;;
17235;SDS011;8734;59.272;17.780;2023-02-01T13:31:09;13.17;;;5.80;;
17235;SDS011;8734;59.272;17.780;2023-02-01T13:34:03;14.27;;;5.43;;
17235;SDS011;8734;59.272;17.780;2023-02-01T13:36:53;15.40;;;5.50;;
17235;SDS011;8734;59.272;17.780;2023-02-01T13:39:41;14.90;;;5.50;;
17235;SDS011;8734;59.272;17.780;2023-02-01T13:42:19;13.07;;;5.43;;
17235;SDS011;8734;59.272;17.780;2023-02-01T13:44:50;14.53;;;5.77;;
17235;SDS011;8734;59.272;17.780;2023-02-01T13:47:22;15.70;;;5.80;;
17235;SDS011;8734;59.272;17.780;2023-02-01T13:49:55;12.10;;;5.43;;
17235;SDS011;8734;59.272;17.780;2023-02-01T13:52:27;12.07;;;6.20;;
17235;SDS011;8734;59.272;17.780;2023-02-01T13:55:03;15.27;;;5.60;;
17235;SDS011;8734;59.272;17.780;2023-02-01T13:57:43;20.13;;;5.53;;
17235;SDS011;8734;59.272;17.780;2023-02-01T14:00:25;17.73;;;5.80;;
17235;SDS011;8734;59.272;17.780;2023-02-01T14:09:13;14.47;;;4.87;;
17235;SDS011;8734;59.272;17.780;2023-02-01T14:11:45;14.87;;;4.80;;
17235;SDS011;8734;59.272;17.780;2023-02-01T14:23:17;11.77;;;4.60;;
17235;SDS011;8734;59.272;17.780;2023-02-01T14:28:56;10.10;;;4.60;;
17235;SDS011;8734;59.272;17.780;2023-02-01T14:31:31;8.43;;;4.37;;
17235;SDS011;8734;59.272;17.780;2023-02-01T14:34:19;17.17;;;5.27;;
17235;SDS011;8734;59.272;17.780;2023-02-01T14:36:57;14.17;;;4.53;;
17235;SDS011;8734;59.272;17.780;2023-02-01T14:39:38;11.73;;;4.60;;
17235;SDS011;8734;59.272;17.780;2023-02-01T14:42:22;8.57;;;3.57;;
17235;SDS011;8734;59.272;17.780;2023-02-01T14:44:54;9.47;;;4.20;;
17235;SDS011;8734;59.272;17.780;2023-02-01T14:47:43;16.90;;;7.00;;
17235;SDS011;8734;59.272;17.780;2023-02-01T14:50:17;9.07;;;4.57;;
17235;SDS011;8734;59.272;17.780;2023-02-01T14:53:01;11.23;;;4.03;;
17235;SDS011;8734;59.272;17.780;2023-02-01T14:55:40;11.50;;;3.27;;
17235;SDS011;8734;59.272;17.780;2023-02-01T14:58:13;6.60;;;3.13;;
17235;SDS011;8734;59.272;17.780;2023-02-01T15:00:50;13.13;;;3.70;;
17235;SDS011;8734;59.272;17.780;2023-02-01T15:03:33;7.60;;;3.47;;
17235;SDS011;8734;59.272;17.780;2023-02-01T15:06:27;18.70;;;4.90;;
17235;SDS011;8734;59.272;17.780;2023-02-01T15:09:00;17.80;;;4.60;;
17235;SDS011;8734;59.272;17.780;2023-02-01T15:11:33;9.47;;;3.87;;
17235;SDS011;8734;59.272;17.780;2023-02-01T15:14:22;12.63;;;4.60;;
17235;SDS011;8734;59.272;17.780;2023-02-01T15:16:51;11.90;;;3.87;;
17235;SDS011;8734;59.272;17.780;2023-02-01T15:19:21;13.77;;;4.33;;
17235;SDS011;8734;59.272;17.780;2023-02-01T15:21:50;7.67;;;3.47;;
17235;SDS011;8734;59.272;17.780;2023-02-01T15:24:21;11.33;;;3.83;;
17235;SDS011;8734;59.272;17.780;2023-02-01T15:26:52;9.27;;;3.90;;
17235;SDS011;8734;59.272;17.780;2023-02-01T15:29:22;12.80;;;3.67;;
17235;SDS011;8734;59.272;17.780;2023-02-01T15:31:54;12.17;;;3.53;;
17235;SDS011;8734;59.272;17.780;2023-02-01T15:34:22;4.83;;;2.70;;
17235;SDS011;8734;59.272;17.780;2023-02-01T15:36:51;11.40;;;3.30;;
17235;SDS011;8734;59.272;17.780;2023-02-01T15:39:29;12.30;;;2.80;;
17235;SDS011;8734;59.272;17.780;2023-02-01T15:42:00;10.93;;;2.53;;
17235;SDS011;8734;59.272;17.780;2023-02-01T15:44:37;10.60;;;2.63;;
17235;SDS011;8734;59.272;17.780;2023-02-01T15:47:12;7.50;;;2.20;;
17235;SDS011;8734;59.272;17.780;2023-02-01T15:49:44;7.83;;;2.70;;
17235;SDS011;8734;59.272;17.780;2023-02-01T15:52:21;5.40;;;1.80;;
17235;SDS011;8734;59.272;17.780;2023-02-01T15:54:54;4.67;;;2.10;;